Time;durP1;ratioP1;P1;durP2;ratioP2;P2;SDS_P1;SDS_P2;PMS_P1;PMS_P2;Temp;Humidity;BMP_temperature;BMP_pressure;BME280_temperature;BME280_humidity;BME280_pressure;Samples;Min_cycle;Max_cycle;Signal;HPM_P1;HPM_P2
2021/01/01 00:01:53;;;;;;;0.80;0.80;;;3.00;99.90;;;3.70;100.00;-20782.81;5055235;28;20247;-64
2021/01/01 00:04:20;;;;;;;0.60;0.60;;;3.00;99.90;;;3.63;100.00;-20781.00;5066737;28;20448;-64
2021/01/01 00:06:49;;;;;;;0.70;0.60;;;2.90;99.90;;;3.70;100.00;-20782.81;5062971;28;20200;-64
2021/01/01 00:09:17;;;;;;;1.35;1.25;;;3.00;99.90;;;3.64;100.00;-20781.13;5059177;28;20451;-65
2021/01/01 00:11:48;;;;;;;0.60;0.50;;;2.90;99.90;;;3.62;100.00;-20780.72;5069313;28;20194;-64
2021/01/01 00:14:16;;;;;;;0.60;0.60;;;2.90;99.90;;;3.65;100.00;-20781.41;5058677;28;20205;-64
2021/01/01 00:16:44;;;;;;;0.60;0.50;;;2.90;99.90;;;3.71;100.00;-20783.09;5067287;28;20284;-64
2021/01/01 00:19:12;;;;;;;0.60;0.50;;;2.90;99.90;;;3.72;100.00;-20783.38;5064461;28;20258;-64
2021/01/01 00:21:39;;;;;;;0.82;0.82;;;2.90;99.90;;;3.66;100.00;-20781.69;5071454;28;20184;-64
2021/01/01 00:24:08;;;;;;;0.60;0.60;;;2.90;99.90;;;3.63;100.00;-20780.84;5057310;28;20186;-65
2021/01/01 00:26:35;;;;;;;0.60;0.50;;;2.90;99.90;;;3.61;100.00;-20780.44;5071671;28;20596;-65
2021/01/01 00:29:02;;;;;;;0.60;0.50;;;2.90;99.90;;;3.62;100.00;-20780.56;5063442;28;20303;-65
2021/01/01 00:31:30;;;;;;;0.60;0.57;;;2.90;99.90;;;3.60;100.00;-20780.00;5057633;28;20443;-65
2021/01/01 00:33:57;;;;;;;0.60;0.60;;;2.90;99.90;;;3.57;100.00;-20779.31;5057554;28;20824;-63
2021/01/01 00:36:24;;;;;;;0.60;0.50;;;2.90;99.90;;;3.58;100.00;-20779.47;5064011;28;20446;-63
2021/01/01 00:38:52;;;;;;;0.60;0.50;;;2.90;99.90;;;3.53;100.00;-20778.19;5066277;28;21009;-63
2021/01/01 00:41:23;;;;;;;0.60;0.60;;;2.90;99.90;;;3.60;100.00;-20780.00;5071074;28;20931;-64
2021/01/01 00:43:52;;;;;;;0.60;0.50;;;2.90;99.90;;;3.53;100.00;-20778.06;5072398;28;20438;-63
2021/01/01 00:46:19;;;;;;;0.87;0.83;;;2.90;99.90;;;3.50;100.00;-20777.22;5061858;28;20481;-67
2021/01/01 00:48:47;;;;;;;0.60;0.50;;;2.90;99.90;;;3.53;100.00;-20778.06;5061801;28;20464;-63
2021/01/01 00:51:14;;;;;;;0.60;0.50;;;2.90;99.90;;;3.55;100.00;-20778.75;5071265;28;20522;-64
2021/01/01 00:53:44;;;;;;;0.60;0.50;;;2.90;99.90;;;3.57;100.00;-20779.19;5075095;28;20238;-64
2021/01/01 00:56:19;;;;;;;0.60;0.55;;;2.90;99.90;;;3.63;100.00;-20781.00;5071482;28;20203;-63
2021/01/01 00:58:47;;;;;;;0.70;0.65;;;2.90;99.90;;;3.65;100.00;-20781.28;5069595;28;20559;-63
2021/01/01 01:01:15;;;;;;;0.70;0.70;;;2.90;99.90;;;3.65;100.00;-20781.28;5074446;28;20268;-63
2021/01/01 01:03:42;;;;;;;0.70;0.70;;;2.90;99.90;;;3.67;100.00;-20781.97;5059172;28;20313;-63
2021/01/01 01:06:10;;;;;;;0.60;0.50;;;2.90;99.90;;;3.67;100.00;-20781.97;5063002;28;20650;-63
2021/01/01 01:08:37;;;;;;;1.53;1.17;;;2.90;99.90;;;3.65;100.00;-20781.41;5075691;28;20197;-63
2021/01/01 01:11:04;;;;;;;0.60;0.60;;;2.90;99.90;;;3.67;100.00;-20781.81;5063679;28;20957;-64
2021/01/01 01:13:31;;;;;;;0.60;0.60;;;3.00;99.90;;;3.67;100.00;-20781.81;5070111;28;20991;-66
2021/01/01 01:15:58;;;;;;;0.60;0.60;;;3.00;99.90;;;3.64;100.00;-20781.13;5075418;28;20238;-63
2021/01/01 01:18:25;;;;;;;0.68;0.68;;;3.00;99.90;;;3.65;100.00;-20781.28;5068652;28;20518;-64
2021/01/01 01:20:52;;;;;;;0.90;0.87;;;3.00;99.90;;;3.62;100.00;-20780.56;5055722;28;20197;-63
2021/01/01 01:23:20;;;;;;;0.60;0.50;;;3.00;99.90;;;3.69;100.00;-20782.38;5056209;28;20932;-63
2021/01/01 01:25:47;;;;;;;0.60;0.50;;;3.00;99.90;;;3.64;100.00;-20781.13;5072156;28;20196;-64
2021/01/01 01:28:14;;;;;;;0.60;0.60;;;2.90;99.90;;;3.60;100.00;-20780.00;5061442;28;20193;-63
2021/01/01 01:30:41;;;;;;;0.60;0.60;;;3.00;99.90;;;3.57;100.00;-20779.19;5074163;28;20445;-63
2021/01/01 01:33:08;;;;;;;0.90;0.90;;;2.90;99.90;;;3.62;100.00;-20780.56;5068686;28;20978;-63
2021/01/01 01:35:36;;;;;;;0.60;0.60;;;3.00;99.90;;;3.62;100.00;-20780.72;5074392;28;20205;-64
2021/01/01 01:38:04;;;;;;;0.60;0.50;;;2.90;99.90;;;3.66;100.00;-20781.56;5075288;28;20185;-63
2021/01/01 01:40:32;;;;;;;0.60;0.60;;;3.00;99.90;;;3.62;100.00;-20780.56;5067829;28;20451;-64
2021/01/01 01:42:59;;;;;;;1.33;1.13;;;3.00;99.90;;;3.65;100.00;-20781.41;5056800;28;20449;-63
2021/01/01 01:45:26;;;;;;;0.60;0.57;;;3.00;99.90;;;3.65;100.00;-20781.41;5070887;28;20796;-63
2021/01/01 01:47:54;;;;;;;0.60;0.60;;;3.00;99.90;;;3.68;100.00;-20782.09;5072267;28;20443;-63
2021/01/01 01:50:21;;;;;;;1.25;1.08;;;3.00;99.90;;;3.71;100.00;-20782.94;5054403;28;20193;-63
2021/01/01 01:52:49;;;;;;;0.60;0.60;;;3.00;99.90;;;3.69;100.00;-20782.53;5065802;28;20185;-64
2021/01/01 01:55:17;;;;;;;0.60;0.50;;;3.00;99.90;;;3.66;100.00;-20781.69;5061136;28;20549;-64
2021/01/01 01:57:46;;;;;;;0.60;0.60;;;3.00;99.90;;;3.67;100.00;-20781.81;5071618;28;20177;-63
2021/01/01 02:03:01;;;;;;;0.70;0.60;;;3.00;99.90;;;3.70;100.00;-20782.81;5074044;28;20200;-63
2021/01/01 02:05:29;;;;;;;0.60;0.50;;;3.00;99.90;;;3.73;100.00;-20783.50;5059210;28;20443;-63
2021/01/01 02:07:56;;;;;;;0.60;0.50;;;3.00;99.90;;;3.79;100.00;-20785.31;5059226;28;20469;-62
2021/01/01 02:10:24;;;;;;;0.60;0.60;;;3.10;99.90;;;3.77;100.00;-20784.75;5068620;28;20201;-62
2021/01/01 02:12:51;;;;;;;0.60;0.60;;;3.10;99.90;;;3.84;100.00;-20786.72;5056363;28;20525;-63
2021/01/01 02:15:19;;;;;;;0.60;0.60;;;3.10;99.90;;;3.77;100.00;-20784.63;5067402;28;20993;-64
2021/01/01 02:17:46;;;;;;;0.60;0.50;;;3.10;99.90;;;3.76;100.00;-20784.34;5072576;28;20439;-63
2021/01/01 02:20:14;;;;;;;0.60;0.60;;;3.10;99.90;;;3.76;100.00;-20784.47;5054595;28;20436;-63
2021/01/01 02:22:42;;;;;;;0.60;0.60;;;3.10;99.90;;;3.80;100.00;-20785.47;5063513;28;20439;-63
2021/01/01 02:25:11;;;;;;;0.60;0.60;;;3.10;99.90;;;3.78;100.00;-20784.91;5060577;28;20194;-62
2021/01/01 02:27:39;;;;;;;0.60;0.53;;;3.00;99.90;;;3.73;100.00;-20783.66;5070789;28;20943;-63
2021/01/01 02:30:15;;;;;;;0.60;0.50;;;3.10;99.90;;;3.75;100.00;-20784.19;5056154;28;20458;-63
2021/01/01 02:32:42;;;;;;;0.70;0.67;;;3.10;99.90;;;3.75;100.00;-20784.19;5063837;28;20204;-63
2021/01/01 02:35:10;;;;;;;0.60;0.60;;;3.10;99.90;;;3.75;100.00;-20784.19;5062856;28;20485;-64
2021/01/01 02:37:37;;;;;;;0.60;0.60;;;3.10;99.90;;;3.76;100.00;-20784.47;5058101;28;20435;-63
2021/01/01 02:40:07;;;;;;;0.60;0.50;;;3.10;99.90;;;3.79;100.00;-20785.31;5074145;28;20277;-63
2021/01/01 02:42:35;;;;;;;0.60;0.53;;;3.00;99.90;;;3.81;100.00;-20785.88;5062797;28;20463;-66
2021/01/01 02:45:03;;;;;;;0.60;0.50;;;3.10;99.90;;;3.96;100.00;-20789.78;5061727;28;20535;-65
2021/01/01 02:47:30;;;;;;;0.60;0.60;;;3.10;99.90;;;3.99;100.00;-20790.75;5057852;28;20854;-63
2021/01/01 02:49:57;;;;;;;2.03;1.93;;;3.10;99.90;;;3.94;100.00;-20789.22;5053806;28;20883;-63
2021/01/01 02:52:24;;;;;;;0.60;0.50;;;3.10;99.90;;;3.80;100.00;-20785.59;5058566;28;20446;-63
2021/01/01 02:54:51;;;;;;;0.60;0.60;;;3.10;99.90;;;4.01;100.00;-20791.16;5059000;28;20209;-65
2021/01/01 02:57:19;;;;;;;0.60;0.50;;;3.10;99.90;;;3.90;100.00;-20788.09;5063616;28;20192;-64
2021/01/01 02:59:46;;;;;;;0.60;0.50;;;3.10;99.90;;;3.94;100.00;-20789.34;5065415;28;20243;-64
2021/01/01 03:02:13;;;;;;;0.60;0.60;;;3.10;99.90;;;3.86;100.00;-20787.25;5061919;28;20843;-63
2021/01/01 03:04:40;;;;;;;1.23;1.13;;;3.20;99.90;;;3.81;100.00;-20785.88;5062659;28;20676;-63
2021/01/01 03:07:07;;;;;;;0.70;0.60;;;3.10;99.90;;;3.84;100.00;-20786.72;5061980;28;20870;-63
2021/01/01 03:09:34;;;;;;;0.60;0.60;;;3.10;99.90;;;3.85;100.00;-20787.00;5055750;28;20259;-64
2021/01/01 03:12:01;;;;;;;0.70;0.70;;;3.10;99.90;;;3.79;100.00;-20785.31;5055444;28;20530;-63
2021/01/01 03:14:29;;;;;;;0.60;0.60;;;3.10;99.90;;;3.91;100.00;-20788.38;5057794;28;20287;-63
2021/01/01 03:16:56;;;;;;;1.23;0.98;;;3.20;99.90;;;3.78;100.00;-20785.03;5059790;28;20281;-63
2021/01/01 03:19:23;;;;;;;0.60;0.50;;;3.10;99.90;;;3.81;100.00;-20785.88;5059868;28;20221;-64
2021/01/01 03:21:50;;;;;;;0.60;0.60;;;3.10;99.90;;;3.86;100.00;-20787.13;5060863;28;20267;-63
2021/01/01 03:24:16;;;;;;;2.10;1.23;;;3.10;99.90;;;3.82;100.00;-20786.16;5071868;28;20185;-63
2021/01/01 03:26:43;;;;;;;0.60;0.60;;;3.10;99.90;;;3.86;100.00;-20787.25;5063111;28;20715;-63
2021/01/01 03:29:10;;;;;;;0.60;0.60;;;3.10;99.90;;;4.04;100.00;-20792.16;5060679;28;20261;-63
2021/01/01 03:31:38;;;;;;;0.60;0.60;;;3.10;99.90;;;4.04;100.00;-20792.00;5055038;28;20276;-63
2021/01/01 03:34:05;;;;;;;0.60;0.60;;;3.20;99.90;;;4.13;100.00;-20794.50;5069421;28;20268;-62
2021/01/01 03:36:32;;;;;;;0.60;0.50;;;3.20;99.90;;;4.15;100.00;-20794.94;5055142;28;20193;-63
2021/01/01 03:38:59;;;;;;;0.70;0.55;;;3.20;99.90;;;3.97;100.00;-20790.06;5064459;28;20254;-63
2021/01/01 03:41:25;;;;;;;3.53;1.35;;;3.20;99.90;;;4.23;100.00;-20797.31;5062080;28;20715;-63
2021/01/01 03:43:52;;;;;;;0.60;0.50;;;3.20;99.90;;;4.24;100.00;-20797.44;5056940;28;20550;-63
2021/01/01 03:46:20;;;;;;;0.60;0.50;;;3.20;99.90;;;4.09;100.00;-20793.41;5067677;28;20228;-62
2021/01/01 03:48:49;;;;;;;0.70;0.70;;;3.20;99.90;;;4.14;100.00;-20794.66;5059570;28;20469;-63
2021/01/01 03:51:16;;;;;;;0.80;0.80;;;3.20;99.90;;;4.14;100.00;-20794.78;5052619;28;20185;-64
2021/01/01 03:53:43;;;;;;;0.60;0.60;;;3.20;99.90;;;4.09;100.00;-20793.41;5070354;28;20602;-63
2021/01/01 03:56:11;;;;;;;0.70;0.60;;;3.20;99.90;;;4.02;100.00;-20791.44;5057717;28;20549;-63
2021/01/01 03:58:38;;;;;;;0.80;0.80;;;3.10;99.90;;;4.10;100.00;-20793.69;5056960;28;20774;-62
2021/01/01 04:01:05;;;;;;;0.60;0.50;;;3.10;99.90;;;3.99;100.00;-20790.63;5059953;28;20649;-63
2021/01/01 04:03:31;;;;;;;0.60;0.60;;;3.10;99.90;;;4.05;100.00;-20792.44;5053424;28;20240;-65
2021/01/01 04:05:59;;;;;;;0.82;0.80;;;3.10;99.90;;;3.95;100.00;-20789.50;5068444;28;21002;-64
2021/01/01 04:08:26;;;;;;;0.60;0.50;;;3.10;99.90;;;3.93;100.00;-20788.94;5060376;28;20267;-63
2021/01/01 04:10:53;;;;;;;0.60;0.50;;;3.10;99.90;;;3.98;100.00;-20790.47;5055240;28;20199;-63
2021/01/01 04:13:20;;;;;;;0.60;0.60;;;3.10;99.90;;;4.14;100.00;-20794.78;5059549;28;20201;-63
2021/01/01 04:15:47;;;;;;;0.60;0.60;;;3.00;99.90;;;3.87;100.00;-20787.53;5069552;28;20201;-63
2021/01/01 04:18:16;;;;;;;0.70;0.60;;;3.00;99.90;;;3.78;100.00;-20784.91;5058306;28;20325;-64
2021/01/01 04:20:43;;;;;;;0.60;0.50;;;3.00;99.90;;;3.93;100.00;-20789.06;5062612;28;20200;-64
2021/01/01 04:23:11;;;;;;;0.60;0.50;;;3.00;99.90;;;3.75;100.00;-20784.19;5052962;28;20622;-63
2021/01/01 04:25:38;;;;;;;1.17;1.07;;;3.00;99.90;;;3.78;100.00;-20784.91;5069252;28;20268;-64
2021/01/01 04:28:05;;;;;;;0.60;0.60;;;3.00;99.90;;;3.78;100.00;-20784.91;5055938;28;20500;-63
2021/01/01 04:30:32;;;;;;;0.60;0.50;;;3.00;99.90;;;3.79;100.00;-20785.31;5070317;28;20204;-65
2021/01/01 04:33:00;;;;;;;0.70;0.60;;;3.00;99.90;;;3.93;100.00;-20789.06;5059598;28;20189;-63
2021/01/01 04:35:28;;;;;;;0.60;0.60;;;3.00;99.90;;;3.76;100.00;-20784.47;5057463;28;20213;-63
2021/01/01 04:37:55;;;;;;;0.60;0.50;;;3.00;99.90;;;3.71;100.00;-20783.09;5054449;28;20277;-63
2021/01/01 04:40:23;;;;;;;0.70;0.60;;;3.00;99.90;;;3.68;100.00;-20782.09;5059759;28;20255;-63
2021/01/01 04:42:49;;;;;;;1.70;1.60;;;2.90;99.90;;;3.78;100.00;-20785.03;5053713;28;20602;-63
2021/01/01 04:45:16;;;;;;;0.63;0.60;;;2.90;99.90;;;3.69;100.00;-20782.53;5053745;28;20228;-64
2021/01/01 04:47:45;;;;;;;0.60;0.60;;;2.90;99.90;;;3.62;100.00;-20780.56;5068984;28;20625;-64
2021/01/01 04:50:14;;;;;;;0.60;0.60;;;2.90;99.90;;;3.69;100.00;-20782.53;5052482;28;20687;-63
2021/01/01 04:52:43;;;;;;;1.85;1.70;;;2.90;99.90;;;3.64;100.00;-20781.13;5062204;28;20190;-64
2021/01/01 04:55:11;;;;;;;0.60;0.60;;;2.90;99.90;;;3.73;100.00;-20783.50;5062273;28;20293;-64
2021/01/01 04:57:39;;;;;;;0.70;0.60;;;2.90;99.90;;;3.65;100.00;-20781.41;5061598;28;20455;-63
2021/01/01 05:00:08;;;;;;;0.70;0.60;;;2.90;99.90;;;3.57;100.00;-20779.31;5059946;28;20664;-63
2021/01/01 05:02:35;;;;;;;0.60;0.50;;;2.90;99.90;;;3.57;100.00;-20779.19;5059805;28;20197;-64
2021/01/01 05:05:02;;;;;;;0.60;0.60;;;2.80;99.90;;;3.57;100.00;-20779.19;5066114;28;20263;-63
2021/01/01 05:07:29;;;;;;;0.60;0.50;;;2.80;99.90;;;3.59;100.00;-20779.75;5056802;28;20197;-63
2021/01/01 05:09:57;;;;;;;0.60;0.60;;;2.80;99.90;;;3.69;100.00;-20782.38;5059418;28;20708;-64
2021/01/01 05:12:34;;;;;;;0.60;0.50;;;2.80;99.90;;;3.52;100.00;-20777.78;5075822;28;20184;-64
2021/01/01 05:15:02;;;;;;;0.63;0.60;;;2.80;99.90;;;3.71;100.00;-20783.09;5064321;28;20681;-63
2021/01/01 05:17:34;;;;;;;0.60;0.50;;;2.80;99.90;;;3.63;100.00;-20780.84;5054949;28;20267;-63
2021/01/01 05:20:07;;;;;;;0.60;0.60;;;2.80;99.90;;;3.53;100.00;-20778.19;5062197;28;20270;-64
2021/01/01 05:22:35;;;;;;;0.60;0.50;;;2.80;99.90;;;3.42;100.00;-20775.00;5075865;28;20189;-63
2021/01/01 05:25:16;;;;;;;0.60;0.50;;;2.70;99.90;;;3.58;100.00;-20779.47;5064434;28;20265;-63
2021/01/01 05:27:47;;;;;;;0.60;0.50;;;2.80;99.90;;;3.50;100.00;-20777.38;5057625;28;20240;-64
2021/01/01 05:30:28;;;;;;;0.60;0.60;;;2.80;99.90;;;3.51;100.00;-20777.66;5074203;28;20230;-63
2021/01/01 05:32:55;;;;;;;0.60;0.57;;;2.70;99.90;;;3.63;100.00;-20780.84;5064437;28;20649;-63
2021/01/01 05:35:27;;;;;;;0.60;0.50;;;2.80;99.90;;;3.42;100.00;-20775.00;5055728;28;20201;-63
2021/01/01 05:37:54;;;;;;;1.05;0.82;;;2.70;99.90;;;3.56;100.00;-20778.91;5065845;28;20283;-63
2021/01/01 05:40:30;;;;;;;0.60;0.60;;;2.70;99.90;;;3.73;100.00;-20783.66;5062364;28;20228;-63
2021/01/01 05:43:13;;;;;;;1.23;1.13;;;2.70;99.90;;;3.81;100.00;-20785.88;5064206;28;20238;-64
2021/01/01 05:45:40;;;;;;;0.60;0.50;;;2.70;99.90;;;3.78;100.00;-20785.03;5057489;28;20243;-64
2021/01/01 05:48:08;;;;;;;0.73;0.73;;;2.70;99.90;;;3.78;100.00;-20785.03;5070984;28;20210;-63
2021/01/01 05:50:36;;;;;;;0.88;0.88;;;2.70;99.90;;;3.75;100.00;-20784.06;5066421;28;20281;-65
2021/01/01 05:53:15;;;;;;;0.60;0.60;;;2.70;99.90;;;3.70;100.00;-20782.66;5055889;28;20185;-64
2021/01/01 05:55:43;;;;;;;0.70;0.70;;;2.70;99.90;;;3.75;100.00;-20784.06;5071928;28;20232;-63
2021/01/01 05:58:22;;;;;;;0.60;0.60;;;2.70;99.90;;;3.90;100.00;-20788.09;5057463;28;20196;-67
2021/01/01 06:00:53;;;;;;;0.60;0.60;;;2.80;99.90;;;3.74;100.00;-20783.78;5072938;28;20597;-63
2021/01/01 06:03:28;;;;;;;0.60;0.50;;;2.70;99.90;;;3.72;100.00;-20783.38;5059807;28;20213;-65
2021/01/01 06:05:57;;;;;;;0.60;0.50;;;2.70;99.90;;;3.82;100.00;-20786.00;5070855;28;20267;-63
2021/01/01 06:08:26;;;;;;;0.60;0.60;;;2.70;99.90;;;3.95;100.00;-20789.63;5072613;28;20182;-63
2021/01/01 06:10:58;;;;;;;1.20;1.15;;;2.70;99.90;;;3.95;100.00;-20789.50;5055665;28;20247;-63
2021/01/01 06:13:31;;;;;;;0.60;0.50;;;2.70;99.90;;;3.85;100.00;-20786.84;5064104;28;20193;-64
2021/01/01 06:16:01;;;;;;;0.60;0.50;;;2.70;99.90;;;3.91;100.00;-20788.53;5071691;28;20287;-63
2021/01/01 06:18:30;;;;;;;0.60;0.60;;;2.80;99.90;;;3.87;100.00;-20787.41;5056058;28;20275;-64
2021/01/01 06:21:00;;;;;;;0.60;0.50;;;2.80;99.90;;;3.77;100.00;-20784.75;5059918;28;20277;-64
2021/01/01 06:23:34;;;;;;;0.60;0.57;;;2.70;99.90;;;3.69;100.00;-20782.53;5069746;28;20194;-63
2021/01/01 06:26:03;;;;;;;0.60;0.60;;;2.70;99.90;;;3.72;100.00;-20783.38;5072079;28;20193;-64
2021/01/01 06:28:32;;;;;;;0.60;0.50;;;2.70;99.90;;;3.76;100.00;-20784.47;5067357;28;20622;-63
2021/01/01 06:31:01;;;;;;;0.60;0.60;;;2.70;99.90;;;3.69;100.00;-20782.38;5055200;28;20209;-64
2021/01/01 06:33:30;;;;;;;0.60;0.50;;;2.70;99.90;;;3.70;100.00;-20782.66;5065451;28;20204;-63
2021/01/01 06:35:57;;;;;;;0.60;0.50;;;2.70;99.90;;;3.64;100.00;-20781.13;5073270;28;20286;-63
2021/01/01 06:38:36;;;;;;;0.60;0.60;;;2.70;99.90;;;3.66;100.00;-20781.56;5067981;28;20182;-63
2021/01/01 06:41:04;;;;;;;0.60;0.60;;;2.70;99.90;;;3.66;100.00;-20781.69;5063153;28;20239;-64
2021/01/01 06:43:54;;;;;;;0.60;0.50;;;2.70;99.90;;;3.65;100.00;-20781.41;5063785;28;20662;-64
2021/01/01 06:46:34;;;;;;;0.60;0.60;;;2.70;99.90;;;3.61;100.00;-20780.44;5055173;28;20178;-63
2021/01/01 06:49:02;;;;;;;0.60;0.50;;;2.70;99.90;;;3.63;100.00;-20781.00;5066030;28;20258;-63
2021/01/01 06:51:31;;;;;;;0.60;0.50;;;2.70;99.90;;;3.58;100.00;-20779.59;5059867;28;20205;-64
2021/01/01 06:54:11;;;;;;;0.60;0.60;;;2.70;99.90;;;3.61;100.00;-20780.28;5056696;28;20251;-63
2021/01/01 06:56:41;;;;;;;0.60;0.50;;;2.70;99.90;;;3.62;100.00;-20780.72;5073851;28;20353;-63
2021/01/01 06:59:14;;;;;;;0.60;0.60;;;2.70;99.90;;;3.58;100.00;-20779.59;5074004;28;20691;-64
2021/01/01 07:01:44;;;;;;;0.70;0.70;;;2.70;99.90;;;3.60;100.00;-20780.00;5071696;28;20193;-64
2021/01/01 07:04:12;;;;;;;0.60;0.60;;;2.70;99.90;;;3.59;100.00;-20779.88;5059468;28;20214;-63
2021/01/01 07:06:42;;;;;;;0.60;0.60;;;2.70;99.90;;;3.62;100.00;-20780.72;5064188;28;20241;-64
2021/01/01 07:09:13;;;;;;;0.70;0.52;;;2.70;99.90;;;3.66;100.00;-20781.69;5056247;28;20187;-63
2021/01/01 07:11:44;;;;;;;0.60;0.50;;;2.70;99.90;;;3.66;100.00;-20781.69;5071249;28;20712;-63
2021/01/01 07:14:19;;;;;;;0.60;0.50;;;2.70;99.90;;;3.66;100.00;-20781.56;5059116;28;20181;-63
2021/01/01 07:16:50;;;;;;;1.45;1.35;;;2.70;99.90;;;3.58;100.00;-20779.47;5063881;28;20661;-64
2021/01/01 07:19:17;;;;;;;0.60;0.60;;;2.70;99.90;;;3.56;100.00;-20778.91;5067940;28;20217;-63
2021/01/01 07:21:44;;;;;;;0.60;0.60;;;2.60;99.90;;;3.53;100.00;-20778.06;5055353;28;20263;-64
2021/01/01 07:24:12;;;;;;;0.80;0.80;;;2.60;99.90;;;3.50;100.00;-20777.22;5058986;28;20188;-63
2021/01/01 07:26:39;;;;;;;0.70;0.70;;;2.60;99.90;;;3.51;100.00;-20777.50;5067137;28;20197;-64
2021/01/01 07:29:07;;;;;;;0.60;0.60;;;2.60;99.90;;;3.47;100.00;-20776.41;5072991;28;20191;-64
2021/01/01 07:31:34;;;;;;;0.70;0.60;;;2.60;99.90;;;3.43;100.00;-20775.28;5057921;28;20189;-64
2021/01/01 07:34:10;;;;;;;0.60;0.50;;;2.60;99.90;;;3.43;100.00;-20775.28;5057025;28;20212;-64
2021/01/01 07:36:37;;;;;;;0.60;0.50;;;2.60;99.90;;;3.46;100.00;-20776.09;5068406;28;20264;-63
2021/01/01 07:39:06;;;;;;;0.60;0.50;;;2.60;99.90;;;3.44;100.00;-20775.56;5065585;28;20621;-64
2021/01/01 07:41:34;;;;;;;0.60;0.57;;;2.60;99.90;;;3.42;100.00;-20775.00;5057411;28;20657;-68
2021/01/01 07:44:01;;;;;;;0.60;0.60;;;2.60;99.90;;;3.41;100.00;-20774.84;5055430;28;20268;-64
2021/01/01 07:46:31;;;;;;;0.70;0.68;;;2.60;99.90;;;3.41;100.00;-20774.84;5061101;28;20193;-64
2021/01/01 07:48:58;;;;;;;0.70;0.60;;;2.60;99.90;;;3.45;100.00;-20775.84;5072406;28;20217;-63
2021/01/01 07:51:26;;;;;;;0.70;0.70;;;2.60;99.90;;;3.63;100.00;-20781.00;5057161;28;20280;-64
2021/01/01 07:54:12;;;;;;;0.60;0.60;;;2.60;99.90;;;3.48;100.00;-20776.66;5058595;28;20580;-63
2021/01/01 07:56:39;;;;;;;0.60;0.60;;;2.60;99.90;;;3.50;100.00;-20777.22;5063394;28;20209;-63
2021/01/01 07:59:06;;;;;;;0.63;0.60;;;2.60;99.90;;;3.54;100.00;-20778.34;5064768;28;20218;-65
2021/01/01 08:01:34;;;;;;;0.60;0.50;;;2.60;99.90;;;3.49;100.00;-20776.94;5063320;28;20379;-65
2021/01/01 08:04:02;;;;;;;0.88;0.88;;;2.60;99.90;;;3.58;100.00;-20779.47;5060845;28;20330;-63
2021/01/01 08:06:32;;;;;;;0.60;0.60;;;2.60;99.90;;;3.68;100.00;-20782.25;5071536;28;20205;-63
2021/01/01 08:09:04;;;;;;;0.60;0.60;;;2.60;99.90;;;3.58;100.00;-20779.59;5053826;28;20593;-63
2021/01/01 08:11:33;;;;;;;0.60;0.60;;;2.60;99.90;;;3.58;100.00;-20779.47;5069479;28;20235;-64
2021/01/01 08:14:00;;;;;;;0.60;0.50;;;2.60;99.90;;;3.58;100.00;-20779.47;5069213;28;20182;-64
2021/01/01 08:16:27;;;;;;;0.70;0.60;;;2.60;99.90;;;3.54;100.00;-20778.47;5058664;28;20205;-64
2021/01/01 08:18:54;;;;;;;0.60;0.60;;;2.60;99.90;;;3.53;100.00;-20778.06;5061639;28;20209;-63
2021/01/01 08:21:22;;;;;;;0.60;0.50;;;2.60;99.90;;;3.48;100.00;-20776.66;5068164;28;20272;-64
2021/01/01 08:24:02;;;;;;;0.60;0.60;;;2.60;99.90;;;3.61;100.00;-20780.28;5056188;28;20226;-64
2021/01/01 08:26:32;;;;;;;0.60;0.50;;;2.60;99.90;;;3.51;100.00;-20777.50;5068147;28;20198;-64
2021/01/01 08:29:00;;;;;;;0.60;0.60;;;2.60;99.90;;;3.50;100.00;-20777.22;5061274;28;20696;-65
2021/01/01 08:31:28;;;;;;;0.60;0.60;;;2.60;99.90;;;3.54;100.00;-20778.34;5068579;28;20191;-65
2021/01/01 08:33:59;;;;;;;0.90;0.90;;;2.70;99.90;;;3.59;100.00;-20779.75;5056520;28;20213;-63
2021/01/01 08:36:31;;;;;;;0.60;0.60;;;2.70;99.90;;;3.65;100.00;-20781.41;5071070;28;20223;-64
2021/01/01 08:39:10;;;;;;;0.60;0.60;;;2.70;99.90;;;3.75;100.00;-20784.06;5066064;28;20645;-63
2021/01/01 08:41:42;;;;;;;0.70;0.60;;;2.80;99.90;;;3.85;100.00;-20787.00;5055608;28;20255;-63
2021/01/01 08:44:11;;;;;;;0.60;0.50;;;2.90;99.90;;;3.97;100.00;-20790.06;5057751;28;20208;-63
2021/01/01 08:46:38;;;;;;;1.70;1.60;;;2.90;99.90;;;4.06;100.00;-20792.69;5066424;28;20194;-63
2021/01/01 08:49:19;;;;;;;0.60;0.60;;;2.90;99.90;;;3.97;100.00;-20790.19;5069735;28;20240;-63
2021/01/01 08:51:47;;;;;;;0.60;0.60;;;3.00;99.90;;;4.05;100.00;-20792.28;5057532;28;20194;-65
2021/01/01 08:54:26;;;;;;;0.60;0.50;;;3.10;99.90;;;4.15;100.00;-20794.94;5058972;28;20489;-64
2021/01/01 08:56:58;;;;;;;0.60;0.55;;;3.10;99.90;;;4.33;100.00;-20800.09;5067215;28;20502;-64
2021/01/01 08:59:27;;;;;;;0.60;0.60;;;3.20;99.90;;;4.45;100.00;-20803.28;5067385;28;20211;-64
2021/01/01 09:01:54;;;;;;;0.60;0.60;;;3.20;99.90;;;4.33;100.00;-20800.09;5059032;28;20527;-64
2021/01/01 09:04:24;;;;;;;2.40;2.20;;;3.20;99.90;;;4.38;100.00;-20801.19;5058855;28;20498;-64
2021/01/01 09:06:56;;;;;;;0.60;0.57;;;3.20;99.90;;;4.50;100.00;-20804.53;5067827;28;20439;-64
2021/01/01 09:09:31;;;;;;;0.60;0.60;;;3.20;99.90;;;4.54;100.00;-20805.66;5075581;28;20196;-63
2021/01/01 09:12:16;;;;;;;0.60;0.60;;;3.20;99.90;;;4.47;100.00;-20803.72;5072943;28;20987;-63
2021/01/01 09:14:48;;;;;;;0.60;0.50;;;3.30;99.90;;;4.50;100.00;-20804.53;5065202;28;20263;-64
2021/01/01 09:17:17;;;;;;;0.60;0.50;;;3.30;99.90;;;4.47;100.00;-20803.84;5070000;28;20207;-64
2021/01/01 09:19:45;;;;;;;0.60;0.57;;;3.30;99.90;;;4.45;100.00;-20803.28;5060151;28;20554;-64
2021/01/01 09:22:15;;;;;;;1.33;1.23;;;3.30;99.90;;;4.90;100.00;-20815.56;5071933;28;20542;-65
2021/01/01 09:24:45;;;;;;;0.60;0.60;;;3.30;99.90;;;4.88;100.00;-20814.84;5067312;28;20468;-63
2021/01/01 09:27:13;;;;;;;0.60;0.50;;;3.40;99.90;;;4.83;100.00;-20813.75;5064260;28;20509;-64
2021/01/01 09:29:40;;;;;;;0.60;0.50;;;3.50;99.90;;;5.00;100.00;-20818.34;5057091;28;20679;-64
2021/01/01 09:32:10;;;;;;;0.60;0.50;;;3.50;99.90;;;4.97;100.00;-20817.50;5069196;28;20444;-63
2021/01/01 09:34:36;;;;;;;0.70;0.60;;;3.50;99.90;;;4.97;100.00;-20817.34;5059562;28;20521;-64
2021/01/01 09:37:11;;;;;;;0.63;0.60;;;3.50;99.90;;;4.92;100.00;-20816.09;5063364;28;20455;-63
2021/01/01 09:39:38;;;;;;;0.70;0.70;;;3.50;99.90;;;5.00;100.00;-20818.34;5072084;28;20430;-64
2021/01/01 09:42:07;;;;;;;1.47;1.37;;;3.50;99.90;;;4.60;100.00;-20807.34;5058538;28;20564;-64
2021/01/01 09:44:34;;;;;;;0.60;0.50;;;3.60;99.90;;;4.66;100.00;-20809.00;5066567;28;20447;-63
2021/01/01 09:47:01;;;;;;;1.17;1.07;;;3.50;99.90;;;4.73;100.00;-20810.94;5067004;28;20435;-63
2021/01/01 09:49:28;;;;;;;0.60;0.50;;;3.50;99.90;;;4.64;100.00;-20808.31;5071222;28;20464;-64
2021/01/01 09:51:55;;;;;;;0.60;0.60;;;3.50;99.90;;;4.76;100.00;-20811.78;5069719;28;20443;-63
2021/01/01 09:54:38;;;;;;;0.60;0.50;;;3.50;99.90;;;4.67;100.00;-20809.13;5055702;28;20436;-63
2021/01/01 09:57:06;;;;;;;0.70;0.70;;;3.50;99.90;;;4.57;100.00;-20806.50;5066414;28;20471;-65
2021/01/01 09:59:33;;;;;;;0.60;0.60;;;3.50;99.90;;;4.62;100.00;-20807.88;5058947;28;20463;-65
2021/01/01 10:02:00;;;;;;;0.60;0.60;;;3.50;99.90;;;4.66;100.00;-20808.88;5073571;28;20432;-64
2021/01/01 10:04:28;;;;;;;0.60;0.60;;;3.50;99.90;;;4.69;100.00;-20809.84;5068115;28;20468;-63
2021/01/01 10:06:55;;;;;;;2.50;1.55;;;3.40;99.90;;;4.55;100.00;-20805.94;5066193;28;20447;-64
2021/01/01 10:09:21;;;;;;;0.60;0.50;;;3.50;99.90;;;4.51;100.00;-20804.81;5074375;28;20196;-66
2021/01/01 10:11:49;;;;;;;1.10;1.00;;;3.40;99.90;;;4.33;100.00;-20799.94;5073001;28;20526;-64
2021/01/01 10:14:17;;;;;;;0.60;0.60;;;3.50;99.90;;;4.45;100.00;-20803.16;5068840;28;20263;-65
2021/01/01 10:16:47;;;;;;;0.60;0.60;;;3.40;99.90;;;4.41;100.00;-20802.03;5064563;28;20486;-64
2021/01/01 10:19:14;;;;;;;0.83;0.83;;;3.50;99.90;;;4.51;100.00;-20804.81;5074675;28;20619;-64
2021/01/01 10:21:42;;;;;;;0.60;0.60;;;3.50;99.90;;;4.48;100.00;-20804.13;5059694;28;20447;-63
2021/01/01 10:24:09;;;;;;;0.60;0.60;;;3.50;99.90;;;4.42;100.00;-20802.47;5074481;28;20185;-66
2021/01/01 10:26:36;;;;;;;4.40;1.83;;;3.60;99.90;;;4.35;100.00;-20800.66;5066697;28;20451;-63
2021/01/01 10:29:10;;;;;;;0.60;0.60;;;3.50;99.90;;;4.34;100.00;-20800.22;5066877;28;20447;-64
2021/01/01 10:31:37;;;;;;;0.60;0.60;;;3.50;99.90;;;4.46;100.00;-20803.44;5073563;28;20504;-64